createdAt,value
2018-09-10T00:02:17.362Z,101663.19
2018-09-10T00:04:46.466Z,101672.31
2018-09-10T00:07:15.842Z,101683.28
2018-09-10T00:09:44.596Z,101685.81
2018-09-10T00:12:13.717Z,101680.66
2018-09-10T00:14:42.517Z,101684.78
2018-09-10T00:17:17.656Z,101683.95
2018-09-10T00:19:46.771Z,101680.66
2018-09-10T00:22:16.142Z,101684.54
2018-09-10T00:24:45.657Z,101681.41
2018-09-10T00:27:14.457Z,101681.84
2018-09-10T00:29:43.275Z,101686.30
2018-09-10T00:32:12.007Z,101687.09
2018-09-10T00:34:42.174Z,101686.63
2018-09-10T00:37:11.001Z,101691.30
2018-09-10T00:39:39.766Z,101693.83
2018-09-10T00:42:08.515Z,101693.59
2018-09-10T00:44:37.579Z,101682.62
2018-09-10T00:47:06.363Z,101675.61
2018-09-10T00:49:35.525Z,101677.41
2018-09-10T00:52:04.260Z,101672.36
2018-09-10T00:54:33.361Z,101666.19
2018-09-10T00:57:02.422Z,101663.05
2018-09-10T00:59:31.290Z,101655.25
2018-09-10T01:02:00.309Z,101656.48
2018-09-10T01:04:29.268Z,101662.05
2018-09-10T01:06:58.253Z,101676.09
2018-09-10T01:09:27.068Z,101682.73
2018-09-10T01:11:56.384Z,101685.23
2018-09-10T01:14:25.132Z,101676.28
2018-09-10T01:16:54.206Z,101665.10
2018-09-10T01:19:23.010Z,101668.27
2018-09-10T01:21:51.767Z,101681.58
2018-09-10T01:24:20.971Z,101683.87
2018-09-10T01:26:49.960Z,101680.55
2018-09-10T01:29:19.074Z,101684.66
2018-09-10T01:31:48.339Z,101678.38
2018-09-10T01:34:22.555Z,101694.25
2018-09-10T01:36:51.837Z,101695.38
2018-09-10T01:39:20.865Z,101695.95
2018-09-10T01:41:49.663Z,101696.04
2018-09-10T01:44:18.710Z,101689.03
2018-09-10T01:46:47.638Z,101688.00
2018-09-10T01:49:16.440Z,101681.48
2018-09-10T01:51:45.188Z,101681.81
2018-09-10T01:54:13.994Z,101682.16
2018-09-10T01:56:43.055Z,101677.28
2018-09-10T01:59:11.867Z,101672.22
2018-09-10T02:01:41.227Z,101676.59
2018-09-10T02:04:10.196Z,101677.50
2018-09-10T02:06:39.425Z,101673.48
2018-09-10T02:09:09.574Z,101683.41
2018-09-10T02:11:38.717Z,101685.66
2018-09-10T02:14:07.752Z,101683.82
2018-09-10T02:16:36.577Z,101687.44
2018-09-10T02:19:06.291Z,101678.19
2018-09-10T02:21:36.086Z,101679.89
2018-09-10T02:24:05.136Z,101683.75
2018-09-10T02:26:34.141Z,101682.13
2018-09-10T02:29:03.397Z,101685.99
2018-09-10T02:31:32.534Z,101686.33
2018-09-10T02:34:01.338Z,101685.86
2018-09-10T02:36:30.310Z,101679.90
2018-09-10T02:38:59.058Z,101675.88
2018-09-10T02:41:27.816Z,101668.08
2018-09-10T02:43:57.114Z,101663.81
2018-09-10T02:46:26.614Z,101661.73
2018-09-10T02:48:56.347Z,101675.75
2018-09-10T02:51:26.290Z,101673.02
2018-09-10T02:53:56.192Z,101679.86
2018-09-10T02:56:25.913Z,101682.59
2018-09-10T02:58:55.787Z,101677.70
2018-09-10T03:01:25.641Z,101674.47
2018-09-10T03:03:55.385Z,101676.17
2018-09-10T03:06:24.402Z,101659.50
2018-09-10T03:08:53.675Z,101662.48
2018-09-10T03:11:22.436Z,101667.95
2018-09-10T03:13:51.156Z,101677.87
2018-09-10T03:16:19.905Z,101673.19
2018-09-10T03:18:49.181Z,101672.39
2018-09-10T03:21:18.334Z,101681.64
2018-09-10T03:23:47.927Z,101681.06
2018-09-10T03:26:16.737Z,101679.37
2018-09-10T03:28:46.244Z,101682.35
2018-09-10T03:31:16.003Z,101676.22
2018-09-10T03:33:44.828Z,101680.32
2018-09-10T03:36:13.534Z,101684.77
2018-09-10T03:38:42.329Z,101696.20
2018-09-10T03:41:11.370Z,101693.13
2018-09-10T03:43:40.084Z,101690.89
2018-09-10T03:46:08.962Z,101700.36
2018-09-10T03:48:38.291Z,101693.76
2018-09-10T03:51:07.034Z,101695.38
2018-09-10T03:53:36.291Z,101697.53
2018-09-10T03:56:05.056Z,101695.13
2018-09-10T03:58:33.812Z,101697.41
2018-09-10T04:01:03.105Z,101702.05
2018-09-10T04:03:32.078Z,101696.37
2018-09-10T04:06:01.830Z,101691.02
2018-09-10T04:08:30.857Z,101684.42
2018-09-10T04:10:59.955Z,101679.73
2018-09-10T04:13:29.110Z,101676.37
2018-09-10T04:15:57.918Z,101677.73
2018-09-10T04:18:26.988Z,101676.03
2018-09-10T04:20:55.979Z,101673.87
2018-09-10T04:23:24.702Z,101672.51
2018-09-10T04:25:53.596Z,101678.77
2018-09-10T04:28:22.368Z,101693.26
2018-09-10T04:30:51.155Z,101690.52
2018-09-10T04:33:20.266Z,101704.45
2018-09-10T04:35:49.388Z,101711.06
2018-09-10T04:38:19.193Z,101711.06
2018-09-10T04:40:48.235Z,101719.27
2018-09-10T04:43:17.604Z,101714.38
2018-09-10T04:45:46.371Z,101712.67
2018-09-10T04:48:15.131Z,101708.56
2018-09-10T04:50:44.143Z,101705.25
2018-09-10T04:53:14.007Z,101704.95
2018-09-10T04:55:42.756Z,101708.56
2018-09-10T04:58:11.765Z,101713.95
2018-09-10T05:00:40.606Z,101724.58
2018-09-10T05:03:09.738Z,101720.97
2018-09-10T05:05:38.560Z,101715.95
2018-09-10T05:08:07.720Z,101714.25
2018-09-10T05:10:36.524Z,101706.86
2018-09-10T05:13:05.301Z,101719.64
2018-09-10T05:15:34.572Z,101720.47
2018-09-10T05:18:03.802Z,101719.55
2018-09-10T05:20:33.270Z,101719.80
2018-09-10T05:23:02.412Z,101728.73
2018-09-10T05:25:31.216Z,101730.92
2018-09-10T05:28:00.367Z,101732.53
2018-09-10T05:30:29.382Z,101745.66
2018-09-10T05:32:58.197Z,101754.12
2018-09-10T05:35:27.086Z,101769.73
2018-09-10T05:37:56.666Z,101764.03
2018-09-10T05:40:25.590Z,101764.50
2018-09-10T05:42:54.747Z,101761.42
2018-09-10T05:45:23.645Z,101755.62
2018-09-10T05:47:52.883Z,101747.89
2018-09-10T05:50:22.041Z,101746.77
2018-09-10T05:52:51.223Z,101763.33
2018-09-10T05:55:21.368Z,101764.16
2018-09-10T05:57:50.726Z,101758.59
2018-09-10T06:00:19.868Z,101762.20
2018-09-10T06:02:49.108Z,101763.25
2018-09-10T06:05:18.126Z,101766.51
2018-09-10T06:07:46.919Z,101761.83
2018-09-10T06:10:15.976Z,101762.31
2018-09-10T06:12:45.339Z,101775.44
2018-09-10T06:15:14.409Z,101778.91
2018-09-10T06:17:43.274Z,101774.94
2018-09-10T06:20:12.264Z,101779.87
2018-09-10T06:22:41.471Z,101794.03
2018-09-10T06:25:11.479Z,101792.99
2018-09-10T06:27:40.930Z,101791.29
2018-09-10T06:30:09.924Z,101795.65
2018-09-10T06:32:39.323Z,101791.12
2018-09-10T06:35:08.358Z,101797.55
2018-09-10T06:37:37.781Z,101805.27
2018-09-10T06:40:07.615Z,101808.23
2018-09-10T06:42:37.066Z,101808.34
2018-09-10T06:45:05.966Z,101807.40
2018-09-10T06:47:35.053Z,101797.28
2018-09-10T06:50:04.129Z,101791.03
2018-09-10T06:52:33.879Z,101788.89
2018-09-10T06:55:03.325Z,101792.28
2018-09-10T06:57:32.925Z,101785.08
2018-09-10T07:00:02.256Z,101792.73
2018-09-10T07:02:31.364Z,101790.56
2018-09-10T07:05:00.729Z,101793.13
2018-09-10T07:07:29.703Z,101791.36
2018-09-10T07:09:59.187Z,101788.42
2018-09-10T07:12:28.277Z,101787.06
2018-09-10T07:14:57.887Z,101794.56
2018-09-10T07:17:26.618Z,101789.91
2018-09-10T07:19:55.929Z,101794.53
2018-09-10T07:22:24.747Z,101791.44
2018-09-10T07:24:53.758Z,101791.34
2018-09-10T07:27:22.521Z,101791.92
2018-09-10T07:29:51.579Z,101788.50
2018-09-10T07:32:20.643Z,101793.89
2018-09-10T07:34:49.686Z,101791.84
2018-09-10T07:37:18.657Z,101791.64
2018-09-10T07:39:47.711Z,101796.35
2018-09-10T07:42:16.480Z,101811.02
2018-09-10T07:44:45.168Z,101818.51
2018-09-10T07:47:13.959Z,101815.08
2018-09-10T07:49:43.078Z,101801.10
2018-09-10T07:52:11.795Z,101793.24
2018-09-10T07:54:40.947Z,101789.61
2018-09-10T07:57:09.944Z,101797.13
2018-09-10T07:59:38.891Z,101805.16
2018-09-10T08:02:07.968Z,101809.31
2018-09-10T08:04:36.724Z,101820.55
2018-09-10T08:07:05.515Z,101820.55
2018-09-10T08:09:34.306Z,101814.23
2018-09-10T08:12:03.425Z,101823.98
2018-09-10T08:14:32.141Z,101814.60
2018-09-10T08:17:01.488Z,101816.91
2018-09-10T08:19:30.407Z,101826.17
2018-09-10T08:21:59.152Z,101825.03
2018-09-10T08:24:28.289Z,101829.77
2018-09-10T08:26:57.871Z,101826.91
2018-09-10T08:29:26.861Z,101827.72
2018-09-10T08:31:56.194Z,101826.61
2018-09-10T08:34:25.259Z,101812.84
2018-09-10T08:36:54.624Z,101807.23
2018-09-10T08:39:23.621Z,101810.55
2018-09-10T08:41:52.530Z,101822.38
2018-09-10T08:44:24.100Z,101826.92
2018-09-10T08:46:52.825Z,101828.19
2018-09-10T08:49:21.595Z,101827.88
2018-09-10T08:51:50.649Z,101829.25
2018-09-10T08:54:19.424Z,101819.16
2018-09-10T08:56:48.581Z,101824.43
2018-09-10T08:59:17.629Z,101833.66
2018-09-10T09:01:46.776Z,101838.02
2018-09-10T09:04:15.533Z,101854.17
2018-09-10T09:06:44.611Z,101845.00
2018-09-10T09:09:13.642Z,101857.28
2018-09-10T09:11:42.666Z,101853.83
2018-09-10T09:14:11.474Z,101833.97
2018-09-10T09:16:40.488Z,101830.75
2018-09-10T09:19:09.254Z,101852.66
2018-09-10T09:21:38.037Z,101855.77
2018-09-10T09:24:07.148Z,101848.09
2018-09-10T09:26:35.900Z,101855.33
2018-09-10T09:29:04.872Z,101858.87
2018-09-10T09:31:34.154Z,101849.67
2018-09-10T09:34:02.918Z,101850.26
2018-09-10T09:36:36.853Z,101848.77
2018-09-10T09:39:12.705Z,101846.34
2018-09-10T09:41:46.532Z,101846.34
2018-09-10T09:44:20.711Z,101843.58
2018-09-10T09:46:49.700Z,101848.97
2018-09-10T09:49:18.499Z,101838.27
2018-09-10T09:51:47.887Z,101856.52
2018-09-10T09:54:17.424Z,101854.27
2018-09-10T09:56:46.557Z,101858.01
2018-09-10T09:59:16.146Z,101862.62
2018-09-10T10:01:51.939Z,101871.67
2018-09-10T10:04:21.009Z,101874.32
2018-09-10T10:06:50.074Z,101876.23
2018-09-10T10:09:18.785Z,101872.57
2018-09-10T10:11:47.833Z,101881.02
2018-09-10T10:14:16.555Z,101876.34
2018-09-10T10:16:51.835Z,101874.64
2018-09-10T10:19:20.553Z,101863.48
2018-09-10T10:21:49.303Z,101870.13
2018-09-10T10:24:18.153Z,101862.30
2018-09-10T10:26:46.866Z,101871.83
2018-09-10T10:29:15.922Z,101865.47
2018-09-10T10:31:44.736Z,101867.20
2018-09-10T10:34:13.808Z,101857.59
2018-09-10T10:36:42.894Z,101858.42
2018-09-10T10:39:12.010Z,101857.83
2018-09-10T10:41:40.756Z,101859.03
2018-09-10T10:44:09.895Z,101855.78
2018-09-10T10:46:39.012Z,101860.09
2018-09-10T10:49:08.131Z,101854.56
2018-09-10T10:51:36.857Z,101857.53
2018-09-10T10:54:05.980Z,101859.80
2018-09-10T10:56:34.721Z,101865.81
2018-09-10T10:59:03.741Z,101865.05
2018-09-10T11:01:32.692Z,101864.63
2018-09-10T11:04:01.769Z,101861.17
2018-09-10T11:06:30.486Z,101867.35
2018-09-10T11:08:59.595Z,101871.95
2018-09-10T11:11:28.360Z,101874.91
2018-09-10T11:13:57.389Z,101876.22
2018-09-10T11:16:26.395Z,101880.08
2018-09-10T11:18:55.143Z,101866.00
2018-09-10T11:21:24.784Z,101869.09
2018-09-10T11:23:54.149Z,101870.86
2018-09-10T11:26:22.880Z,101873.47
2018-09-10T11:28:51.684Z,101881.53
2018-09-10T11:31:20.436Z,101885.30
2018-09-10T11:33:49.547Z,101892.30
2018-09-10T11:36:18.312Z,101900.27
2018-09-10T11:38:47.105Z,101894.73
2018-09-10T11:41:16.125Z,101896.38
2018-09-10T11:43:44.926Z,101911.30
2018-09-10T11:46:14.298Z,101907.89
2018-09-10T11:48:43.012Z,101911.06
2018-09-10T11:51:12.061Z,101917.48
2018-09-10T11:53:41.070Z,101915.73
2018-09-10T11:56:10.438Z,101919.45
2018-09-10T11:58:39.202Z,101921.48
2018-09-10T12:01:08.365Z,101924.20
2018-09-10T12:03:37.074Z,101932.24
2018-09-10T12:06:05.781Z,101936.26
2018-09-10T12:08:35.098Z,101933.55
2018-09-10T12:11:04.166Z,101934.68
2018-09-10T12:13:32.974Z,101951.00
2018-09-10T12:16:02.265Z,101971.22
2018-09-10T12:18:31.032Z,101966.77
2018-09-10T12:21:00.166Z,101956.69
2018-09-10T12:23:29.212Z,101942.00
2018-09-10T12:25:58.394Z,101937.39
2018-09-10T12:28:27.168Z,101929.59
2018-09-10T12:30:56.288Z,101926.83
2018-09-10T12:33:25.013Z,101934.39
2018-09-10T12:35:54.204Z,101918.22
2018-09-10T12:38:22.988Z,101930.62
2018-09-10T12:40:52.079Z,101929.13
2018-09-10T12:43:21.579Z,101931.41
2018-09-10T12:45:50.903Z,101942.89
2018-09-10T12:48:19.664Z,101934.05
2018-09-10T12:50:48.412Z,101936.01
2018-09-10T12:53:17.325Z,101952.31
2018-09-10T12:55:46.290Z,101940.14
2018-09-10T12:58:15.019Z,101937.52
2018-09-10T13:00:43.888Z,101929.84
2018-09-10T13:03:13.008Z,101932.39
2018-09-10T13:05:41.800Z,101933.19
2018-09-10T13:08:10.650Z,101940.78
2018-09-10T13:10:39.589Z,101944.44
2018-09-10T13:13:08.277Z,101944.01
2018-09-10T13:15:38.046Z,101956.14
2018-09-10T13:18:07.078Z,101966.64
2018-09-10T13:20:35.913Z,101954.68
2018-09-10T13:23:05.246Z,101957.44
2018-09-10T13:25:34.070Z,101949.95
2018-09-10T13:28:02.962Z,101937.55
2018-09-10T13:30:32.007Z,101928.61
2018-09-10T13:33:00.906Z,101929.44
2018-09-10T13:35:32.515Z,101933.80
2018-09-10T13:38:01.317Z,101934.50
2018-09-10T13:40:30.248Z,101940.46
2018-09-10T13:42:59.925Z,101937.00
2018-09-10T13:45:28.678Z,101933.77
2018-09-10T13:48:00.592Z,101941.48
2018-09-10T13:50:29.905Z,101943.68
2018-09-10T13:52:58.676Z,101957.56
2018-09-10T13:55:27.550Z,101947.66
2018-09-10T13:57:57.090Z,101945.95
2018-09-10T14:00:25.901Z,101949.53
2018-09-10T14:02:55.012Z,101958.37
2018-09-10T14:05:23.788Z,101953.65
2018-09-10T14:07:52.879Z,101963.17
2018-09-10T14:10:21.935Z,101962.25
2018-09-10T14:12:50.988Z,101960.77
2018-09-10T14:15:21.672Z,101969.94
2018-09-10T14:17:50.855Z,101977.77
2018-09-10T14:20:20.327Z,101973.84
2018-09-10T14:22:49.427Z,101972.01
2018-09-10T14:25:18.320Z,101970.17
2018-09-10T14:27:47.275Z,101970.28
2018-09-10T14:30:16.001Z,101964.23
2018-09-10T14:32:45.594Z,101962.48
2018-09-10T14:35:14.671Z,101965.13
2018-09-10T14:37:43.580Z,101964.66
2018-09-10T14:40:12.380Z,101972.25
2018-09-10T14:42:41.332Z,101984.41
2018-09-10T14:45:10.846Z,102002.89
2018-09-10T14:47:39.915Z,102002.66
2018-09-10T14:50:09.079Z,102008.41
2018-09-10T14:52:38.359Z,102013.44
2018-09-10T14:55:07.384Z,102013.20
2018-09-10T14:57:36.669Z,102017.56
2018-09-10T15:00:06.090Z,102016.75
2018-09-10T15:02:34.977Z,102023.19
2018-09-10T15:05:04.001Z,102008.17
2018-09-10T15:07:33.127Z,102007.14
2018-09-10T15:10:01.885Z,102004.48
2018-09-10T15:12:30.627Z,101996.58
2018-09-10T15:14:59.673Z,101984.08
2018-09-10T15:17:28.515Z,101977.30
2018-09-10T15:19:57.337Z,101970.65
2018-09-10T15:22:26.491Z,101974.88
2018-09-10T15:24:55.637Z,101974.65
2018-09-10T15:27:24.464Z,101972.95
2018-09-10T15:29:53.438Z,101977.41
2018-09-10T15:32:24.367Z,101975.25
2018-09-10T15:34:53.128Z,101972.48
2018-09-10T15:37:21.946Z,101971.20
2018-09-10T15:39:50.945Z,101958.56
2018-09-10T15:42:19.973Z,101950.76
2018-09-10T15:44:49.270Z,101951.11
2018-09-10T15:47:18.367Z,101951.45
2018-09-10T15:49:47.934Z,101954.66
2018-09-10T15:52:17.990Z,101946.19
2018-09-10T15:54:47.561Z,101949.50
2018-09-10T15:57:16.387Z,101942.15
2018-09-10T15:59:45.475Z,101932.04
2018-09-10T16:02:14.646Z,101933.66
2018-09-10T16:04:43.672Z,101939.03
2018-09-10T16:07:12.568Z,101941.90
2018-09-10T16:09:41.735Z,101938.47
2018-09-10T16:12:10.491Z,101950.66
2018-09-10T16:14:39.247Z,101950.18
2018-09-10T16:17:08.480Z,101942.03
2018-09-10T16:19:37.601Z,101941.48
2018-09-10T16:22:06.421Z,101947.09
2018-09-10T16:24:36.032Z,101945.37
2018-09-10T16:27:04.908Z,101948.56
2018-09-10T16:29:33.877Z,101952.37
2018-09-10T16:32:02.710Z,101953.14
2018-09-10T16:34:31.474Z,101955.55
2018-09-10T16:37:00.477Z,101957.51
2018-09-10T16:39:29.920Z,101957.51
2018-09-10T16:41:58.748Z,101961.53
2018-09-10T16:44:27.624Z,101951.11
2018-09-10T16:46:56.443Z,101945.92
2018-09-10T16:49:25.212Z,101951.11
2018-09-10T16:51:54.831Z,101954.41
2018-09-10T16:54:23.645Z,101947.88
2018-09-10T16:56:53.027Z,101942.37
2018-09-10T16:59:21.872Z,101936.29
2018-09-10T17:01:51.610Z,101937.01
2018-09-10T17:04:21.070Z,101942.41
2018-09-10T17:06:50.822Z,101945.60
2018-09-10T17:09:20.217Z,101944.95
2018-09-10T17:11:49.023Z,101939.55
2018-09-10T17:14:17.826Z,101946.34
2018-09-10T17:16:46.947Z,101945.97
2018-09-10T17:19:15.808Z,101939.41
2018-09-10T17:21:44.568Z,101945.71
2018-09-10T17:24:13.570Z,101953.59
2018-09-10T17:26:42.403Z,101960.67
2018-09-10T17:29:12.071Z,101958.47
2018-09-10T17:31:41.049Z,101946.09
2018-09-10T17:34:09.890Z,101943.11
2018-09-10T17:36:39.014Z,101932.55
2018-09-10T17:39:08.875Z,101922.38
2018-09-10T17:41:44.759Z,101916.98
2018-09-10T17:44:13.550Z,101930.14
2018-09-10T17:46:42.327Z,101932.75
2018-09-10T17:49:11.074Z,101917.73
2018-09-10T17:51:39.866Z,101911.98
2018-09-10T17:54:09.188Z,101917.20
2018-09-10T17:56:38.303Z,101920.54
2018-09-10T17:59:13.930Z,101913.19
2018-09-10T18:01:42.932Z,101918.13
2018-09-10T18:04:11.720Z,101937.03
2018-09-10T18:06:40.455Z,101947.69
2018-09-10T18:09:11.332Z,101931.53
2018-09-10T18:11:40.902Z,101924.18
2018-09-10T18:14:09.931Z,101922.02
2018-09-10T18:16:39.283Z,101924.77
2018-09-10T18:19:08.255Z,101926.38
2018-09-10T18:21:37.007Z,101936.89
2018-09-10T18:24:06.519Z,101952.69
2018-09-10T18:26:35.715Z,101960.10
2018-09-10T18:29:04.464Z,101962.70
2018-09-10T18:31:33.211Z,101949.30
2018-09-10T18:34:04.248Z,101947.69
2018-09-10T18:36:35.929Z,101940.54
2018-09-10T18:39:06.930Z,101937.34
2018-09-10T18:41:35.634Z,101945.09
2018-09-10T18:44:04.394Z,101949.56
2018-09-10T18:46:33.179Z,101954.81
2018-09-10T18:49:02.017Z,101940.04
2018-09-10T18:51:31.276Z,101935.13
2018-09-10T18:54:00.044Z,101943.92
2018-09-10T18:56:29.505Z,101940.62
2018-09-10T18:58:58.236Z,101946.67
2018-09-10T19:01:27.486Z,101940.38
2018-09-10T19:03:56.199Z,101943.80
2018-09-10T19:06:25.422Z,101943.08
2018-09-10T19:08:54.774Z,101946.50
2018-09-10T19:11:23.809Z,101935.03
2018-09-10T19:13:52.791Z,101932.07
2018-09-10T19:16:21.957Z,101933.75
2018-09-10T19:18:51.867Z,101939.38
2018-09-10T19:21:20.947Z,101929.27
2018-09-10T19:23:50.213Z,101938.40
2018-09-10T19:26:19.087Z,101936.91
2018-09-10T19:28:48.247Z,101933.77
2018-09-10T19:31:17.593Z,101936.06
2018-09-10T19:33:53.055Z,101931.21
2018-09-10T19:36:22.132Z,101935.13
2018-09-10T19:38:51.376Z,101945.62
2018-09-10T19:41:20.121Z,101937.56
2018-09-10T19:43:48.885Z,101934.70
2018-09-10T19:46:17.805Z,101933.97
2018-09-10T19:48:46.681Z,101941.41
2018-09-10T19:51:15.851Z,101945.86
2018-09-10T19:53:44.921Z,101951.45
2018-09-10T19:56:13.695Z,101947.42
2018-09-10T19:58:43.338Z,101954.92
2018-09-10T20:01:12.429Z,101948.39
2018-09-10T20:03:41.640Z,101933.48
2018-09-10T20:06:10.791Z,101928.66
2018-09-10T20:08:39.878Z,101942.72
2018-09-10T20:11:09.088Z,101934.58
2018-09-10T20:13:37.861Z,101949.00
2018-09-10T20:16:06.765Z,101947.72
2018-09-10T20:18:35.547Z,101940.94
2018-09-10T20:21:04.484Z,101932.92
2018-09-10T20:23:33.535Z,101938.95
2018-09-10T20:26:02.638Z,101928.80
2018-09-10T20:28:31.446Z,101913.62
2018-09-10T20:31:00.427Z,101914.66
2018-09-10T20:33:29.277Z,101899.32
2018-09-10T20:35:58.072Z,101889.72
2018-09-10T20:38:26.795Z,101888.34
2018-09-10T20:40:55.649Z,101898.53
2018-09-10T20:43:24.416Z,101913.38
2018-09-10T20:45:53.503Z,101915.55
2018-09-10T20:48:22.556Z,101898.20
2018-09-10T20:50:51.310Z,101901.73
2018-09-10T20:53:20.132Z,101913.29
2018-09-10T20:55:49.294Z,101915.20
2018-09-10T20:58:18.376Z,101904.56
2018-09-10T21:00:47.551Z,101903.19
2018-09-10T21:03:16.691Z,101908.77
2018-09-10T21:05:45.905Z,101918.44
2018-09-10T21:08:14.775Z,101902.30
2018-09-10T21:10:44.014Z,101895.78
2018-09-10T21:13:13.130Z,101885.14
2018-09-10T21:15:42.185Z,101892.88
2018-09-10T21:18:11.176Z,101900.77
2018-09-10T21:20:40.667Z,101901.02
2018-09-10T21:23:09.558Z,101892.55
2018-09-10T21:25:38.518Z,101885.47
2018-09-10T21:28:07.338Z,101880.08
2018-09-10T21:30:36.307Z,101867.81
2018-09-10T21:33:05.484Z,101865.59
2018-09-10T21:35:34.271Z,101859.37
2018-09-10T21:38:03.055Z,101859.42
2018-09-10T21:40:32.036Z,101860.97
2018-09-10T21:43:01.108Z,101864.13
2018-09-10T21:45:30.475Z,101868.51
2018-09-10T21:47:59.343Z,101868.05
2018-09-10T21:50:35.504Z,101865.61
2018-09-10T21:53:04.701Z,101872.46
2018-09-10T21:55:33.537Z,101882.14
2018-09-10T21:58:02.506Z,101878.03
2018-09-10T22:00:31.293Z,101879.64
2018-09-10T22:03:00.652Z,101873.21
2018-09-10T22:05:29.744Z,101877.08
2018-09-10T22:07:58.635Z,101882.72
2018-09-10T22:10:27.804Z,101874.49
2018-09-10T22:12:56.519Z,101875.29
2018-09-10T22:15:25.656Z,101879.98
2018-09-10T22:17:54.508Z,101877.66
2018-09-10T22:20:23.327Z,101863.61
2018-09-10T22:22:52.123Z,101850.95
2018-09-10T22:25:21.159Z,101858.71
2018-09-10T22:27:50.151Z,101866.02
2018-09-10T22:30:18.947Z,101871.92
2018-09-10T22:32:47.714Z,101869.27
2018-09-10T22:35:16.851Z,101853.48
2018-09-10T22:37:45.934Z,101851.16
2018-09-10T22:40:14.710Z,101844.85
2018-09-10T22:42:44.169Z,101849.63
2018-09-10T22:45:13.246Z,101860.67
2018-09-10T22:47:42.609Z,101847.55
2018-09-10T22:50:11.704Z,101846.43
2018-09-10T22:52:40.716Z,101849.34
2018-09-10T22:55:09.518Z,101845.80
2018-09-10T22:57:38.345Z,101849.42
2018-09-10T23:00:08.175Z,101852.73
2018-09-10T23:02:37.965Z,101865.61
2018-09-10T23:05:06.930Z,101866.81
2018-09-10T23:07:35.698Z,101875.37
2018-09-10T23:10:05.699Z,101872.13
2018-09-10T23:12:34.748Z,101872.13
2018-09-10T23:15:03.543Z,101870.77
2018-09-10T23:17:32.415Z,101875.45
2018-09-10T23:20:01.521Z,101866.73
2018-09-10T23:22:30.427Z,101865.44
2018-09-10T23:24:59.834Z,101861.17
2018-09-10T23:27:29.446Z,101853.28
2018-09-10T23:29:58.224Z,101856.34
2018-09-10T23:32:26.967Z,101850.56
2018-09-10T23:34:55.982Z,101849.61
2018-09-10T23:37:31.190Z,101843.78
2018-09-10T23:40:00.263Z,101839.63
2018-09-10T23:42:29.263Z,101841.23
2018-09-10T23:44:58.905Z,101838.80
2018-09-10T23:47:27.684Z,101834.77
2018-09-10T23:49:59.398Z,101831.06
2018-09-10T23:52:28.225Z,101826.78
2018-09-10T23:54:57.571Z,101821.31
2018-09-10T23:57:26.714Z,101825.82
2018-09-10T23:59:55.504Z,101822.84
